Time;durP1;ratioP1;P1;durP2;ratioP2;P2;SDS_P1;SDS_P2;PMS_P1;PMS_P2;Temp;Humidity;BMP_temperature;BMP_pressure;BME280_temperature;BME280_humidity;BME280_pressure;Samples;Min_cycle;Max_cycle;Signal;HPM_P1;HPM_P2
2021/08/07 00:00:05;;;;;;;3.53;2.03;;;;;;;14.06;94.93;99834.47;5075078;28;20170;-68
2021/08/07 00:02:30;;;;;;;4.07;2.00;;;;;;;14.18;94.13;99837.97;5074629;28;20273;-68
2021/08/07 00:04:56;;;;;;;8.90;2.23;;;;;;;14.20;93.76;99843.22;5075174;28;20170;-68
2021/08/07 00:07:23;;;;;;;7.53;1.87;;;;;;;14.26;93.28;99851.59;5075692;28;20201;-69
2021/08/07 00:09:48;;;;;;;3.93;1.87;;;;;;;14.35;92.39;99856.19;5075662;28;20182;-68
2021/08/07 00:12:13;;;;;;;4.93;1.80;;;;;;;14.30;92.86;99861.09;5092934;28;20550;-68
2021/08/07 00:14:39;;;;;;;3.33;1.80;;;;;;;14.18;94.29;99851.41;5093220;28;20166;-68
2021/08/07 00:17:04;;;;;;;4.70;1.77;;;;;;;14.17;95.50;99859.59;5093434;28;20166;-68
2021/08/07 00:19:30;;;;;;;4.40;1.97;;;;;;;14.18;95.96;99864.81;5058199;28;20178;-68
2021/08/07 00:21:55;;;;;;;3.80;2.27;;;;;;;14.20;95.72;99859.31;5092823;28;20186;-69
2021/08/07 00:24:20;;;;;;;4.90;1.93;;;;;;;14.20;96.53;99853.97;5093139;28;20257;-69
2021/08/07 00:26:46;;;;;;;3.57;1.80;;;;;;;14.15;96.91;99861.53;5093141;28;20223;-69
2021/08/07 00:29:11;;;;;;;4.53;2.27;;;;;;;14.13;95.49;99860.81;5092959;28;20193;-69
2021/08/07 00:31:36;;;;;;;3.40;1.90;;;;;;;14.17;94.95;99873.84;5092613;28;20217;-69
2021/08/07 00:34:02;;;;;;;4.00;2.00;;;;;;;14.21;94.96;99866.41;5074991;28;20181;-68
2021/08/07 00:36:27;;;;;;;3.53;1.70;;;;;;;14.29;95.34;99870.13;5092821;28;20571;-68
2021/08/07 00:38:52;;;;;;;4.23;2.13;;;;;;;14.37;94.84;99872.19;5092741;28;20174;-67
2021/08/07 00:41:17;;;;;;;5.33;1.90;;;;;;;14.44;94.50;99873.38;5092741;28;20241;-69
2021/08/07 00:43:43;;;;;;;5.40;1.93;;;;;;;14.51;94.23;99868.38;5092739;28;20181;-68
2021/08/07 00:46:08;;;;;;;3.43;2.10;;;;;;;14.58;94.22;99858.81;5057847;28;20177;-67
2021/08/07 00:48:33;;;;;;;5.70;2.07;;;;;;;14.59;92.54;99860.53;5057749;28;20199;-69
2021/08/07 00:50:59;;;;;;;3.17;1.70;;;;;;;14.54;92.97;99857.38;5074630;28;20214;-69
2021/08/07 00:53:24;;;;;;;9.83;1.70;;;;;;;14.55;92.71;99851.03;5074763;28;20162;-68
2021/08/07 00:55:49;;;;;;;4.03;1.70;;;;;;;14.60;92.39;99859.53;5092751;28;20283;-69
2021/08/07 00:58:15;;;;;;;2.60;1.73;;;;;;;14.68;91.24;99863.28;5074843;28;20170;-69
2021/08/07 01:00:40;;;;;;;5.37;1.73;;;;;;;14.77;90.20;99858.94;5093378;28;20198;-68
2021/08/07 01:03:12;;;;;;;3.97;2.13;;;;;;;14.75;91.95;99850.16;5092569;28;20174;-69
2021/08/07 01:05:48;;;;;;;5.97;2.00;;;;;;;14.74;92.14;99848.47;5074528;28;20177;-68
2021/08/07 01:08:18;;;;;;;5.83;2.00;;;;;;;14.76;92.93;99853.69;5074507;28;20204;-69
2021/08/07 01:11:10;;;;;;;8.70;2.13;;;;;;;14.67;95.14;99844.59;5074501;28;20226;-68
2021/08/07 01:13:39;;;;;;;7.27;2.37;;;;;;;14.33;100.00;99843.88;5064221;28;20293;-68
2021/08/07 01:16:11;;;;;;;6.03;2.20;;;;;;;14.22;99.91;99830.53;5077995;28;20209;-68
2021/08/07 01:18:38;;;;;;;3.50;1.93;;;;;;;14.06;100.00;99823.72;5077923;28;20266;-67
2021/08/07 01:21:06;;;;;;;6.53;2.00;;;;;;;13.90;100.00;99820.63;5077810;28;20733;-67
2021/08/07 01:23:41;;;;;;;3.67;2.03;;;;;;;13.89;100.00;99821.63;5078231;28;20174;-67
2021/08/07 01:26:15;;;;;;;5.13;2.23;;;;;;;13.79;100.00;99822.50;5077816;28;20162;-69
2021/08/07 01:28:42;;;;;;;8.30;2.20;;;;;;;13.80;100.00;99817.00;5078227;28;20175;-68
2021/08/07 01:31:11;;;;;;;4.50;2.10;;;;;;;13.66;100.00;99817.28;5077606;28;20248;-69
2021/08/07 01:33:36;;;;;;;5.00;2.00;;;;;;;13.61;100.00;99824.84;5077647;28;20261;-68
2021/08/07 01:36:03;;;;;;;6.87;2.07;;;;;;;13.55;100.00;99820.84;5077686;28;20212;-68
2021/08/07 01:38:29;;;;;;;5.43;2.57;;;;;;;13.53;100.00;99830.84;5077796;28;20159;-68
2021/08/07 01:40:54;;;;;;;4.23;2.33;;;;;;;13.48;100.00;99832.19;5095607;28;20243;-68
2021/08/07 01:43:20;;;;;;;4.30;2.43;;;;;;;13.43;100.00;99828.06;5095641;28;20174;-69
2021/08/07 01:45:46;;;;;;;5.40;2.60;;;;;;;13.38;100.00;99834.72;5095816;28;20175;-69
2021/08/07 01:48:15;;;;;;;4.70;3.10;;;;;;;13.34;100.00;99831.44;5077319;28;20681;-68
2021/08/07 01:50:44;;;;;;;4.20;2.47;;;;;;;13.26;100.00;99830.34;5077430;28;20689;-68
2021/08/07 01:53:10;;;;;;;3.17;2.40;;;;;;;13.20;100.00;99825.50;5095400;28;20166;-68
2021/08/07 01:55:50;;;;;;;7.40;2.80;;;;;;;13.05;100.00;99819.50;5077276;28;20162;-69
2021/08/07 01:58:21;;;;;;;5.50;2.50;;;;;;;13.09;100.00;99816.47;5060700;28;20157;-68
2021/08/07 02:00:47;;;;;;;7.33;2.63;;;;;;;13.11;100.00;99819.88;5095713;28;20202;-68
2021/08/07 02:03:13;;;;;;;6.50;2.60;;;;;;;13.15;100.00;99812.44;5077763;28;20178;-67
2021/08/07 02:05:39;;;;;;;7.77;2.70;;;;;;;13.18;100.00;99820.25;5077770;28;20174;-68
2021/08/07 02:08:07;;;;;;;5.13;2.90;;;;;;;13.20;100.00;99815.63;5095790;28;20190;-68
2021/08/07 02:10:33;;;;;;;7.27;2.60;;;;;;;13.21;100.00;99822.69;5061991;28;20201;-68
2021/08/07 02:12:59;;;;;;;5.53;2.67;;;;;;;13.25;100.00;99818.78;5077420;28;20261;-68
2021/08/07 02:15:24;;;;;;;5.33;2.40;;;;;;;13.24;100.00;99817.09;5077215;28;20304;-70
2021/08/07 02:17:50;;;;;;;5.27;2.90;;;;;;;13.20;100.00;99807.59;5095221;28;20170;-71
2021/08/07 02:20:17;;;;;;;5.50;2.90;;;;;;;13.16;100.00;99808.78;5060202;28;20201;-69
2021/08/07 02:22:44;;;;;;;5.93;2.70;;;;;;;13.08;100.00;99812.06;5077294;28;20200;-70
2021/08/07 02:25:11;;;;;;;5.53;2.60;;;;;;;13.04;100.00;99815.13;5076159;28;20177;-68
2021/08/07 02:27:36;;;;;;;8.90;3.37;;;;;;;13.05;100.00;99806.13;5094904;28;20644;-68
2021/08/07 02:30:02;;;;;;;5.60;3.20;;;;;;;13.00;100.00;99808.28;5076396;28;20200;-69
2021/08/07 02:32:28;;;;;;;17.00;3.93;;;;;;;12.91;100.00;99803.66;5076357;28;20178;-69
2021/08/07 02:34:53;;;;;;;9.53;4.20;;;;;;;12.77;100.00;99802.06;5076396;28;20224;-68
2021/08/07 02:37:19;;;;;;;7.70;3.97;;;;;;;12.74;100.00;99799.63;5094441;28;20166;-68
2021/08/07 02:39:44;;;;;;;7.63;4.20;;;;;;;12.70;100.00;99808.88;5076473;28;20205;-68
2021/08/07 02:42:09;;;;;;;10.50;4.13;;;;;;;12.72;100.00;99810.47;5094543;28;20666;-68
2021/08/07 02:44:35;;;;;;;9.73;4.63;;;;;;;12.78;100.00;99807.31;5094593;28;20249;-69
2021/08/07 02:47:01;;;;;;;8.37;4.93;;;;;;;12.78;100.00;99812.66;5076434;28;20262;-68
2021/08/07 02:49:26;;;;;;;8.03;3.77;;;;;;;12.83;100.00;99814.97;5059443;28;20235;-69
2021/08/07 02:51:52;;;;;;;4.87;4.00;;;;;;;12.85;100.00;99818.38;5076112;28;20186;-68
2021/08/07 02:54:17;;;;;;;7.03;3.73;;;;;;;12.97;100.00;99820.09;5075929;28;20658;-68
2021/08/07 02:56:43;;;;;;;5.93;3.70;;;;;;;13.04;100.00;99817.81;5076032;28;20166;-68
2021/08/07 02:59:08;;;;;;;5.93;3.70;;;;;;;13.10;100.00;99820.84;5075794;28;20173;-68
2021/08/07 03:01:33;;;;;;;7.13;4.00;;;;;;;13.18;100.00;99816.72;5075904;28;20240;-68
2021/08/07 03:03:58;;;;;;;6.07;4.43;;;;;;;13.38;100.00;99819.53;5075828;28;20186;-68
2021/08/07 03:06:24;;;;;;;7.67;6.10;;;;;;;13.53;100.00;99811.22;5075906;28;20180;-69
2021/08/07 03:08:50;;;;;;;7.20;4.53;;;;;;;13.61;100.00;99812.28;5076024;28;20186;-69
2021/08/07 03:11:15;;;;;;;8.27;6.20;;;;;;;13.63;100.00;99821.06;5075785;28;20233;-69
2021/08/07 03:13:40;;;;;;;10.00;7.40;;;;;;;13.69;100.00;99822.38;5093737;28;20166;-68
2021/08/07 03:16:07;;;;;;;8.87;5.47;;;;;;;13.70;100.00;99824.09;5093814;28;20574;-69
2021/08/07 03:18:32;;;;;;;7.27;5.30;;;;;;;13.66;100.00;99823.50;5093749;28;20294;-68
2021/08/07 03:20:57;;;;;;;9.60;5.23;;;;;;;13.67;100.00;99825.19;5093674;28;20194;-69
2021/08/07 03:23:23;;;;;;;8.13;6.37;;;;;;;13.75;100.00;99825.44;5093856;28;20535;-69
2021/08/07 03:25:48;;;;;;;8.57;5.60;;;;;;;13.81;100.00;99826.75;5093608;28;20303;-68
2021/08/07 03:28:13;;;;;;;12.10;6.43;;;;;;;13.84;100.00;99839.91;5093567;28;20187;-68
2021/08/07 03:30:39;;;;;;;8.40;5.43;;;;;;;13.92;100.00;99839.28;5093579;28;20213;-68
2021/08/07 03:33:04;;;;;;;7.60;5.53;;;;;;;13.94;100.00;99835.50;5058724;28;20519;-68
2021/08/07 03:35:29;;;;;;;7.47;4.53;;;;;;;13.96;100.00;99830.00;5075364;28;20527;-68
2021/08/07 03:37:54;;;;;;;8.87;7.90;;;;;;;14.16;100.00;99833.72;5075575;28;20170;-68
2021/08/07 03:40:20;;;;;;;16.77;10.83;;;;;;;14.29;100.00;99832.56;5093235;28;20193;-68
2021/08/07 03:42:45;;;;;;;16.23;12.37;;;;;;;14.42;100.00;99823.47;5093880;28;20267;-68
2021/08/07 03:45:11;;;;;;;17.10;11.90;;;;;;;14.49;100.00;99833.56;5075154;28;20584;-68
2021/08/07 03:47:47;;;;;;;14.47;9.53;;;;;;;14.49;100.00;99844.31;5058451;28;20198;-69
2021/08/07 03:50:12;;;;;;;21.90;13.00;;;;;;;14.61;100.00;99837.94;5075097;28;20166;-68
2021/08/07 03:52:38;;;;;;;35.47;13.70;;;;;;;14.61;100.00;99840.63;5093380;28;20177;-68
2021/08/07 03:55:03;;;;;;;33.83;13.63;;;;;;;14.62;100.00;99842.31;5075075;28;20231;-68
2021/08/07 03:57:29;;;;;;;30.17;13.00;;;;;;;14.66;100.00;99838.38;5092998;28;20170;-68
2021/08/07 03:59:54;;;;;;;28.23;12.90;;;;;;;14.68;100.00;99836.41;5093306;28;20177;-68
2021/08/07 04:02:19;;;;;;;19.50;13.60;;;;;;;14.65;100.00;99834.00;5093139;28;20194;-69
2021/08/07 04:04:44;;;;;;;43.03;13.93;;;;;;;14.67;100.00;99837.41;5093107;28;20559;-69
2021/08/07 04:07:10;;;;;;;22.53;13.93;;;;;;;14.69;100.00;99848.84;5093206;28;20170;-68
2021/08/07 04:09:35;;;;;;;18.03;12.77;;;;;;;14.64;100.00;99840.34;5092998;28;20229;-69
2021/08/07 04:12:00;;;;;;;24.90;13.60;;;;;;;14.58;100.00;99848.94;5074730;28;20201;-69
2021/08/07 04:14:26;;;;;;;16.17;12.47;;;;;;;14.60;100.00;99846.97;5092724;28;20175;-69
2021/08/07 04:16:51;;;;;;;16.93;12.40;;;;;;;14.61;100.00;99837.06;5092791;28;20178;-69
2021/08/07 04:19:16;;;;;;;19.23;11.80;;;;;;;14.60;100.00;99836.22;5075043;28;20174;-69
2021/08/07 04:21:41;;;;;;;31.47;12.47;;;;;;;14.55;100.00;99830.41;5074737;28;20295;-69
2021/08/07 04:24:07;;;;;;;16.53;12.73;;;;;;;14.54;100.00;99826.00;5093100;28;20595;-69
2021/08/07 04:26:32;;;;;;;14.67;12.50;;;;;;;14.56;100.00;99824.03;5092958;28;20174;-69
2021/08/07 04:28:57;;;;;;;14.40;12.80;;;;;;;14.57;100.00;99822.22;5092934;28;20178;-69
2021/08/07 04:31:23;;;;;;;15.53;13.30;;;;;;;14.59;100.00;99831.00;5123566;22;20590;-68
2021/08/07 04:33:48;;;;;;;16.07;12.03;;;;;;;14.63;100.00;99845.84;5113562;28;20180;-67
2021/08/07 04:36:13;;;;;;;53.67;12.60;;;;;;;14.74;100.00;99836.88;5113389;28;20170;-68
2021/08/07 04:38:38;;;;;;;44.50;11.87;;;;;;;14.68;100.00;99843.63;5113580;28;20184;-68
2021/08/07 04:41:04;;;;;;;13.37;12.00;;;;;;;14.77;100.00;99842.81;5112459;28;20201;-68
2021/08/07 04:43:31;;;;;;;12.93;11.67;;;;;;;14.75;100.00;99842.09;5113447;28;20203;-68
2021/08/07 04:45:56;;;;;;;35.40;13.40;;;;;;;14.84;100.00;99837.78;5113867;28;20218;-67
2021/08/07 04:48:22;;;;;;;27.57;13.33;;;;;;;14.96;100.00;99831.34;5116493;28;20201;-68
2021/08/07 04:50:47;;;;;;;33.37;15.00;;;;;;;15.02;100.00;99838.88;5116963;28;20676;-69
2021/08/07 04:53:12;;;;;;;20.43;15.53;;;;;;;15.06;100.00;99834.94;5117175;28;20174;-68
2021/08/07 04:55:37;;;;;;;22.30;16.43;;;;;;;15.13;100.00;99836.09;5117041;28;20173;-68
2021/08/07 04:58:03;;;;;;;18.03;14.80;;;;;;;15.19;100.00;99832.88;5116486;28;20587;-68
2021/08/07 05:00:28;;;;;;;26.97;16.13;;;;;;;15.23;100.00;99828.94;5122523;28;20702;-69
2021/08/07 05:02:54;;;;;;;58.93;16.60;;;;;;;15.16;100.00;99826.91;5128385;28;20182;-69
2021/08/07 05:05:19;;;;;;;18.43;16.47;;;;;;;15.31;100.00;99837.19;5128487;28;20178;-69
2021/08/07 05:07:47;;;;;;;18.43;15.93;;;;;;;15.40;100.00;99837.34;5125614;28;20537;-69
2021/08/07 05:10:13;;;;;;;19.40;15.17;;;;;;;15.48;100.00;99841.06;5115646;28;20169;-69
2021/08/07 05:12:39;;;;;;;17.10;15.30;;;;;;;15.55;100.00;99838.66;5115424;28;20201;-67
2021/08/07 05:15:05;;;;;;;18.43;14.83;;;;;;;15.57;100.00;99842.06;5116820;28;20172;-68
2021/08/07 05:17:30;;;;;;;20.93;15.13;;;;;;;15.50;100.00;99844.47;5116703;28;20262;-68
2021/08/07 05:19:56;;;;;;;18.83;16.70;;;;;;;15.63;100.00;99853.19;5115477;28;20170;-68
2021/08/07 05:22:21;;;;;;;24.10;14.73;;;;;;;15.64;100.00;99854.03;5115159;28;20613;-68
2021/08/07 05:24:47;;;;;;;18.87;14.57;;;;;;;15.61;100.00;99859.69;5115950;28;20201;-68
2021/08/07 05:27:13;;;;;;;16.57;14.80;;;;;;;15.71;100.00;99860.56;5115692;28;20173;-68
2021/08/07 05:29:38;;;;;;;16.57;14.60;;;;;;;15.72;100.00;99864.97;5115130;28;20228;-69
2021/08/07 05:32:04;;;;;;;17.13;14.57;;;;;;;15.79;100.00;99860.72;5116115;28;20230;-69
2021/08/07 05:34:29;;;;;;;17.60;14.17;;;;;;;15.83;100.00;99867.53;5114970;28;20546;-68
2021/08/07 05:36:54;;;;;;;17.70;14.37;;;;;;;15.87;100.00;99858.19;5115202;28;20224;-68
2021/08/07 05:39:19;;;;;;;15.93;14.23;;;;;;;15.76;100.00;99863.69;5132167;27;20219;-67
2021/08/07 05:41:45;;;;;;;16.53;14.90;;;;;;;16.04;100.00;99871.97;5114863;28;20193;-69
2021/08/07 05:44:10;;;;;;;15.33;13.80;;;;;;;16.17;100.00;99877.94;5115974;28;20192;-69
2021/08/07 05:46:35;;;;;;;12.87;11.67;;;;;;;16.22;100.00;99868.44;5114871;28;20249;-69
2021/08/07 05:49:01;;;;;;;14.87;12.20;;;;;;;16.21;100.00;99858.66;5114528;28;20205;-68
2021/08/07 05:51:26;;;;;;;14.60;13.03;;;;;;;16.33;100.00;99872.84;5116226;28;20247;-68
2021/08/07 05:53:54;;;;;;;12.80;11.43;;;;;;;16.48;100.00;99878.66;5115236;28;20189;-69
2021/08/07 05:56:20;;;;;;;11.87;10.60;;;;;;;16.44;100.00;99886.19;5115676;28;20231;-68
2021/08/07 05:58:45;;;;;;;11.67;10.10;;;;;;;16.61;100.00;99881.06;5115188;28;20166;-68
2021/08/07 06:01:10;;;;;;;10.63;9.63;;;;;;;16.51;100.00;99879.22;5097582;28;20193;-68
2021/08/07 06:03:36;;;;;;;11.37;9.73;;;;;;;16.51;100.00;99871.16;5115719;28;20203;-68
2021/08/07 06:06:01;;;;;;;10.63;9.53;;;;;;;16.44;100.00;99872.72;5115878;28;20256;-68
2021/08/07 06:08:28;;;;;;;9.33;8.37;;;;;;;16.83;100.00;99881.66;5115475;28;20197;-68
2021/08/07 06:10:54;;;;;;;9.40;8.60;;;;;;;16.96;100.00;99885.88;5114202;28;20186;-69
2021/08/07 06:13:19;;;;;;;9.43;8.53;;;;;;;17.11;99.54;99881.75;5116059;28;20241;-69
2021/08/07 06:15:45;;;;;;;8.93;8.13;;;;;;;17.25;99.62;99883.13;5115485;28;20183;-69
2021/08/07 06:18:10;;;;;;;10.07;8.23;;;;;;;17.29;98.71;99888.06;5115417;28;20180;-69
2021/08/07 06:20:36;;;;;;;10.00;8.30;;;;;;;17.13;99.22;99888.69;5115201;28;20170;-69
2021/08/07 06:23:01;;;;;;;8.07;7.27;;;;;;;17.39;98.94;99888.88;5115221;28;20197;-69
2021/08/07 06:25:26;;;;;;;7.93;7.07;;;;;;;17.55;96.09;99890.97;5115504;28;20173;-69
2021/08/07 06:27:54;;;;;;;8.17;7.47;;;;;;;17.41;95.97;99886.03;5115538;28;20181;-69
2021/08/07 06:30:20;;;;;;;7.93;7.07;;;;;;;17.32;98.19;99893.16;5113863;28;20169;-68
2021/08/07 06:32:46;;;;;;;7.77;6.97;;;;;;;17.48;95.31;99888.03;5115350;28;20224;-69
2021/08/07 06:35:12;;;;;;;9.83;6.53;;;;;;;17.55;95.01;99890.13;5131199;27;20641;-69
2021/08/07 06:37:37;;;;;;;8.50;7.10;;;;;;;17.59;94.05;99889.66;5115551;28;20178;-68
2021/08/07 06:40:03;;;;;;;7.00;6.40;;;;;;;17.60;94.23;99894.06;5113687;28;20201;-69
2021/08/07 06:42:28;;;;;;;6.80;6.10;;;;;;;17.66;93.57;99888.06;5114651;28;20242;-69
2021/08/07 06:44:53;;;;;;;6.83;6.23;;;;;;;17.71;93.11;99887.66;5115127;28;20196;-69
2021/08/07 06:47:19;;;;;;;7.00;6.13;;;;;;;17.61;93.18;99886.81;5115530;28;20177;-68
2021/08/07 06:49:44;;;;;;;11.53;9.60;;;;;;;17.69;92.82;99882.41;5114718;28;20543;-68
2021/08/07 06:52:09;;;;;;;7.10;6.40;;;;;;;17.80;93.07;99887.59;5114881;28;20197;-68
2021/08/07 06:54:35;;;;;;;9.43;7.90;;;;;;;18.00;92.70;99884.81;5114769;28;20603;-68
2021/08/07 06:57:00;;;;;;;8.30;6.90;;;;;;;17.98;93.50;99894.91;5114766;28;20181;-68
2021/08/07 06:59:25;;;;;;;7.47;6.17;;;;;;;17.91;95.86;99891.97;5114740;28;20179;-68
2021/08/07 07:01:51;;;;;;;6.60;6.00;;;;;;;17.87;94.38;99892.41;5114449;28;20189;-68
2021/08/07 07:04:16;;;;;;;6.53;5.83;;;;;;;18.20;92.68;99899.00;5114519;28;20172;-68
2021/08/07 07:06:42;;;;;;;6.93;6.23;;;;;;;18.15;93.23;99899.47;5130504;27;20482;-68
2021/08/07 07:09:07;;;;;;;6.53;5.90;;;;;;;18.32;91.09;99895.97;5114410;28;20210;-69
2021/08/07 07:11:32;;;;;;;6.53;5.93;;;;;;;18.40;91.69;99896.03;5129645;27;20204;-68
2021/08/07 07:13:57;;;;;;;7.90;6.53;;;;;;;18.31;91.06;99891.56;5114589;28;20181;-68
2021/08/07 07:16:23;;;;;;;6.00;5.40;;;;;;;18.34;91.57;99896.66;5114130;28;20181;-68
2021/08/07 07:18:48;;;;;;;6.70;5.97;;;;;;;18.71;89.00;99899.22;5114272;28;20170;-68
2021/08/07 07:21:13;;;;;;;8.10;7.30;;;;;;;18.92;89.44;99893.47;5114657;28;20255;-68
2021/08/07 07:23:39;;;;;;;8.07;6.40;;;;;;;19.10;86.66;99893.44;5114369;28;20201;-69
2021/08/07 07:26:04;;;;;;;6.83;5.23;;;;;;;19.12;85.32;99896.84;5115019;28;20182;-69
2021/08/07 07:28:29;;;;;;;8.80;4.53;;;;;;;19.05;86.21;99890.38;5113486;28;20209;-69
2021/08/07 07:30:55;;;;;;;6.20;4.70;;;;;;;19.10;85.11;99892.59;5112574;28;20232;-68
2021/08/07 07:33:20;;;;;;;5.53;4.87;;;;;;;19.16;83.74;99894.66;5114215;28;20200;-68
2021/08/07 07:35:45;;;;;;;7.00;5.17;;;;;;;19.16;83.09;99897.38;5130185;27;20184;-67
2021/08/07 07:38:11;;;;;;;4.60;4.20;;;;;;;19.17;82.89;99899.06;5114042;28;20173;-67
2021/08/07 07:40:36;;;;;;;4.40;3.80;;;;;;;19.27;83.05;99899.81;5113794;28;20174;-69
2021/08/07 07:43:02;;;;;;;4.33;3.93;;;;;;;19.43;82.52;99904.50;5113941;28;20549;-69
2021/08/07 07:45:27;;;;;;;7.33;4.70;;;;;;;19.46;81.27;99909.56;5114554;28;20207;-69
2021/08/07 07:47:52;;;;;;;6.90;4.30;;;;;;;19.39;81.61;99912.06;5129388;27;20177;-69
2021/08/07 07:50:18;;;;;;;8.87;5.10;;;;;;;19.41;81.72;99907.34;5113385;28;20178;-67
2021/08/07 07:52:44;;;;;;;5.27;3.87;;;;;;;19.47;81.36;99912.13;5129383;27;20173;-68
2021/08/07 07:55:10;;;;;;;5.70;4.13;;;;;;;19.53;80.61;99902.53;5113517;28;20545;-68
2021/08/07 07:57:35;;;;;;;5.37;4.40;;;;;;;19.60;81.57;99893.59;5113845;28;20173;-67
2021/08/07 08:00:00;;;;;;;5.80;4.43;;;;;;;19.79;80.68;99899.81;5113971;28;20204;-69
2021/08/07 08:02:26;;;;;;;8.23;3.87;;;;;;;19.97;79.80;99908.66;5113797;28;20201;-70
2021/08/07 08:04:51;;;;;;;3.93;3.47;;;;;;;20.20;77.71;99901.63;5113988;28;20200;-69
2021/08/07 08:07:16;;;;;;;3.70;3.40;;;;;;;20.41;77.00;99900.34;5114312;28;20205;-69
2021/08/07 08:09:41;;;;;;;3.00;2.70;;;;;;;20.40;77.35;99898.66;5113723;28;20197;-70
2021/08/07 08:12:07;;;;;;;5.77;3.07;;;;;;;20.60;76.86;99894.63;5113975;28;20208;-70
2021/08/07 08:14:32;;;;;;;4.27;3.30;;;;;;;20.79;74.83;99905.13;5114069;28;20182;-68
2021/08/07 08:16:57;;;;;;;4.43;3.70;;;;;;;20.79;73.78;99912.41;5113678;28;20180;-68
2021/08/07 08:19:23;;;;;;;5.57;3.80;;;;;;;20.42;77.23;99897.47;5113562;28;20176;-68
2021/08/07 08:21:48;;;;;;;7.63;4.20;;;;;;;20.09;79.31;99901.09;5114021;28;20219;-69
2021/08/07 08:24:13;;;;;;;4.67;3.23;;;;;;;20.40;78.76;99896.78;5118133;28;20252;-68
2021/08/07 08:26:40;;;;;;;5.53;2.97;;;;;;;20.87;76.27;99896.16;5118468;28;20149;-69
2021/08/07 08:29:06;;;;;;;5.30;3.40;;;;;;;20.27;78.59;99894.53;5133628;27;20201;-67
2021/08/07 08:31:31;;;;;;;4.57;2.90;;;;;;;20.69;77.55;99892.75;5117358;28;20296;-69
2021/08/07 08:33:56;;;;;;;4.07;2.90;;;;;;;20.17;78.30;99883.00;5118239;28;20203;-69
2021/08/07 08:36:21;;;;;;;2.67;2.40;;;;;;;20.90;76.92;99888.53;5117566;28;20209;-69
2021/08/07 08:38:47;;;;;;;6.07;2.80;;;;;;;20.80;74.23;99890.56;5117570;28;20165;-69
2021/08/07 08:41:12;;;;;;;3.67;2.57;;;;;;;20.89;72.36;99896.84;5118238;28;20224;-67
2021/08/07 08:43:38;;;;;;;5.03;3.00;;;;;;;20.97;74.02;99880.56;5117767;28;20537;-69
2021/08/07 08:46:04;;;;;;;3.63;2.47;;;;;;;20.37;74.84;99888.13;5133741;27;20250;-68
2021/08/07 08:48:30;;;;;;;3.87;2.27;;;;;;;20.47;74.37;99891.56;5133749;27;20233;-69
2021/08/07 08:50:55;;;;;;;3.53;2.80;;;;;;;21.40;71.69;99886.63;5133529;27;20201;-69
2021/08/07 08:53:20;;;;;;;2.80;2.27;;;;;;;21.02;72.58;99888.19;5118621;28;20170;-69
2021/08/07 08:55:47;;;;;;;2.90;2.17;;;;;;;21.56;71.66;99888.44;5116707;28;20691;-69
2021/08/07 08:58:15;;;;;;;4.30;2.17;;;;;;;21.28;70.29;99893.44;5117777;28;20538;-68
2021/08/07 09:00:40;;;;;;;3.23;2.00;;;;;;;21.38;70.66;99894.94;5116715;28;20220;-69
2021/08/07 09:03:05;;;;;;;2.53;1.80;;;;;;;21.74;70.17;99898.06;5118151;28;20173;-68
2021/08/07 09:05:31;;;;;;;3.20;1.53;;;;;;;21.45;69.56;99903.22;5117717;28;20203;-68
2021/08/07 09:07:56;;;;;;;2.37;1.70;;;;;;;21.46;69.46;99894.06;5117324;28;20177;-69
2021/08/07 09:10:23;;;;;;;1.97;1.73;;;;;;;21.67;69.21;99898.94;5117473;28;20173;-69
2021/08/07 09:12:55;;;;;;;2.07;1.67;;;;;;;21.99;68.69;99898.81;5117325;28;20215;-68
2021/08/07 09:15:27;;;;;;;2.00;1.53;;;;;;;22.18;68.26;99902.13;5118017;28;20162;-69
2021/08/07 09:18:12;;;;;;;2.17;1.37;;;;;;;22.21;65.84;99899.91;5133017;27;20170;-67
2021/08/07 09:20:40;;;;;;;2.07;1.50;;;;;;;21.63;67.70;99890.28;5116856;28;20189;-68
2021/08/07 09:23:06;;;;;;;3.70;1.50;;;;;;;21.79;69.14;99894.81;5116816;28;20172;-68
2021/08/07 09:25:35;;;;;;;2.10;1.50;;;;;;;21.88;68.98;99888.31;5116964;28;20166;-68
2021/08/07 09:28:01;;;;;;;3.63;1.83;;;;;;;22.56;66.78;99900.38;5115451;28;20166;-68
2021/08/07 09:30:29;;;;;;;1.57;1.30;;;;;;;21.77;66.80;99891.44;5132622;27;20223;-70
2021/08/07 09:33:02;;;;;;;1.83;1.30;;;;;;;21.30;68.84;99896.84;5117228;28;20185;-68
2021/08/07 09:35:30;;;;;;;1.73;1.40;;;;;;;22.38;65.50;99895.22;5117158;28;20265;-68
2021/08/07 09:38:07;;;;;;;2.50;1.27;;;;;;;22.54;63.83;99896.97;5098533;28;20256;-68
2021/08/07 09:40:43;;;;;;;3.03;1.40;;;;;;;22.91;62.59;99890.78;5117547;28;20158;-69
2021/08/07 09:43:09;;;;;;;1.43;1.20;;;;;;;22.44;62.90;99891.78;5117046;28;20161;-68
2021/08/07 09:45:35;;;;;;;5.10;1.30;;;;;;;22.39;63.73;99895.06;5116914;28;20196;-68
2021/08/07 09:48:09;;;;;;;1.53;1.40;;;;;;;22.43;63.73;99899.09;5117290;28;20204;-69
2021/08/07 09:50:35;;;;;;;3.03;1.50;;;;;;;22.02;65.78;99892.19;5117565;28;20226;-68
2021/08/07 09:53:02;;;;;;;2.03;1.40;;;;;;;22.35;65.49;99890.16;5117761;28;20303;-69
2021/08/07 09:55:28;;;;;;;1.77;1.50;;;;;;;23.10;62.64;99882.09;5142037;27;20165;-69
2021/08/07 09:58:07;;;;;;;1.93;1.40;;;;;;;22.64;63.74;99892.97;5122140;28;20173;-69
2021/08/07 10:00:43;;;;;;;3.37;1.70;;;;;;;21.92;64.15;99881.50;5135420;27;20158;-69
2021/08/07 10:03:31;;;;;;;1.63;1.33;;;;;;;22.31;64.82;99891.53;5117488;28;20177;-69
2021/08/07 10:05:57;;;;;;;3.77;1.50;;;;;;;21.89;65.85;99881.00;5116243;28;20158;-69
2021/08/07 10:08:22;;;;;;;2.10;1.90;;;;;;;22.37;64.46;99879.94;5114697;28;20197;-69
2021/08/07 10:10:50;;;;;;;4.77;1.90;;;;;;;22.71;64.13;99880.38;5115471;28;20235;-68
2021/08/07 10:13:17;;;;;;;3.37;2.00;;;;;;;21.70;67.19;99866.00;5116379;28;20166;-68
2021/08/07 10:15:43;;;;;;;2.40;2.07;;;;;;;21.71;66.92;99873.13;5116287;28;20204;-67
2021/08/07 10:18:09;;;;;;;2.33;1.70;;;;;;;21.27;68.67;99875.47;5116575;28;20195;-69
2021/08/07 10:20:36;;;;;;;2.67;1.80;;;;;;;21.64;68.02;99867.56;5116196;28;20169;-68
2021/08/07 10:23:03;;;;;;;12.70;7.30;;;;;;;22.62;65.06;99880.59;5131893;27;20569;-68
2021/08/07 10:25:28;;;;;;;3.60;2.67;;;;;;;22.68;63.90;99864.44;5131902;27;20180;-68
2021/08/07 10:27:58;;;;;;;2.47;1.77;;;;;;;22.14;64.09;99861.72;5114384;28;20537;-68
2021/08/07 10:30:24;;;;;;;3.13;1.80;;;;;;;21.99;64.90;99854.50;5114122;28;20184;-68
2021/08/07 10:32:50;;;;;;;3.17;2.00;;;;;;;23.09;63.16;99855.94;5121328;22;20222;-70
2021/08/07 10:35:16;;;;;;;4.10;1.60;;;;;;;23.44;62.07;99856.25;5094494;28;20178;-70
2021/08/07 10:37:41;;;;;;;4.50;1.80;;;;;;;23.69;60.31;99852.19;5094855;28;20170;-69
2021/08/07 10:40:08;;;;;;;3.07;1.60;;;;;;;23.97;59.42;99853.19;5076530;28;20185;-68
2021/08/07 10:42:36;;;;;;;3.63;2.00;;;;;;;23.90;59.66;99852.28;5076207;28;20291;-68
2021/08/07 10:45:07;;;;;;;2.00;1.30;;;;;;;24.15;58.27;99855.50;5076004;28;20171;-69
2021/08/07 10:47:34;;;;;;;3.87;1.60;;;;;;;23.89;59.07;99853.31;5094712;28;20159;-69
2021/08/07 10:50:00;;;;;;;2.30;1.63;;;;;;;23.49;59.01;99854.63;5094003;28;20731;-69
2021/08/07 10:52:28;;;;;;;3.70;1.40;;;;;;;22.91;59.58;99855.41;5076525;28;20202;-69
2021/08/07 10:54:54;;;;;;;3.73;1.50;;;;;;;22.69;61.14;99836.19;5094287;28;20201;-69
2021/08/07 10:57:40;;;;;;;1.83;1.27;;;;;;;22.94;58.94;99841.44;5094484;28;20526;-69
2021/08/07 11:00:14;;;;;;;1.83;1.50;;;;;;;23.36;57.59;99841.66;5076488;28;20157;-69
2021/08/07 11:02:40;;;;;;;1.20;1.10;;;;;;;23.56;58.92;99838.41;5093814;28;20189;-69
2021/08/07 11:05:05;;;;;;;1.83;1.20;;;;;;;23.85;57.83;99837.53;5059134;28;20181;-69
2021/08/07 11:07:31;;;;;;;3.77;2.83;;;;;;;25.47;54.09;99854.00;5075776;28;20174;-69
2021/08/07 11:10:08;;;;;;;13.10;1.20;;;;;;;26.04;50.71;99841.06;5093876;28;20231;-69
2021/08/07 11:12:34;;;;;;;1.97;1.20;;;;;;;25.77;52.07;99832.75;5093818;28;20213;-69
2021/08/07 11:15:03;;;;;;;4.67;1.17;;;;;;;25.40;52.48;99825.81;5075973;28;20216;-69
2021/08/07 11:17:32;;;;;;;1.70;1.30;;;;;;;26.47;50.78;99836.16;5093667;28;20178;-69
2021/08/07 11:20:09;;;;;;;2.10;0.90;;;;;;;27.01;49.64;99832.41;5075724;28;20197;-69
2021/08/07 11:22:39;;;;;;;3.43;1.30;;;;;;;26.56;49.99;99823.09;5094111;28;20193;-69